createdAt,value
2019-03-03T00:01:33.805Z,7.40
2019-03-03T00:04:01.246Z,7.50
2019-03-03T00:06:28.732Z,7.50
2019-03-03T00:08:56.243Z,7.50
2019-03-03T00:11:23.724Z,7.50
2019-03-03T00:13:51.172Z,7.60
2019-03-03T00:16:18.763Z,7.60
2019-03-03T00:18:46.204Z,7.60
2019-03-03T00:21:13.679Z,7.60
2019-03-03T00:23:41.377Z,7.60
2019-03-03T00:26:08.855Z,7.70
2019-03-03T00:28:36.299Z,7.70
2019-03-03T00:31:03.966Z,7.70
2019-03-03T00:33:31.442Z,7.60
2019-03-03T00:35:58.875Z,7.60
2019-03-03T00:38:35.024Z,7.50
2019-03-03T00:41:25.029Z,7.50
2019-03-03T00:44:10.386Z,7.50
2019-03-03T00:47:06.082Z,7.50
2019-03-03T00:49:54.545Z,7.50
2019-03-03T00:52:53.300Z,7.50
2019-03-03T00:55:39.059Z,7.50
2019-03-03T00:58:17.536Z,7.50
2019-03-03T01:00:51.965Z,7.60
2019-03-03T01:03:32.706Z,7.60
2019-03-03T01:06:31.725Z,7.60
2019-03-03T01:09:11.753Z,7.60
2019-03-03T01:12:04.860Z,7.60
2019-03-03T01:14:54.622Z,7.60
2019-03-03T01:17:37.825Z,7.70
2019-03-03T01:20:14.601Z,7.70
2019-03-03T01:23:00.461Z,7.80
2019-03-03T01:25:27.944Z,7.80
2019-03-03T01:27:55.401Z,7.80
2019-03-03T01:30:22.890Z,7.80
2019-03-03T01:32:50.352Z,7.80
2019-03-03T01:35:17.857Z,7.80
2019-03-03T01:37:45.325Z,7.80
2019-03-03T01:40:12.794Z,7.80
2019-03-03T01:42:40.328Z,7.80
2019-03-03T01:45:09.453Z,7.80
2019-03-03T01:47:37.011Z,7.80
2019-03-03T01:50:05.265Z,7.80
2019-03-03T01:52:32.663Z,7.70
2019-03-03T01:55:00.298Z,7.70
2019-03-03T01:57:27.763Z,7.70
2019-03-03T01:59:55.292Z,7.70
2019-03-03T02:02:23.052Z,7.70
2019-03-03T02:04:50.531Z,7.70
2019-03-03T02:07:18.127Z,7.70
2019-03-03T02:09:45.881Z,7.70
2019-03-03T02:12:13.466Z,8.90
2019-03-03T02:14:40.970Z,7.70
2019-03-03T02:17:08.420Z,7.70
2019-03-03T02:19:36.062Z,7.60
2019-03-03T02:22:03.724Z,7.60
2019-03-03T02:24:31.199Z,7.60
2019-03-03T02:26:58.675Z,7.60
2019-03-03T02:29:26.134Z,7.60
2019-03-03T02:31:53.632Z,7.60
2019-03-03T02:34:21.075Z,7.60
2019-03-03T02:36:51.105Z,7.60
2019-03-03T02:39:18.548Z,7.60
2019-03-03T02:41:46.012Z,7.60
2019-03-03T02:44:13.991Z,7.60
2019-03-03T02:46:41.493Z,7.60
2019-03-03T02:49:09.158Z,7.60
2019-03-03T02:51:36.727Z,7.60
2019-03-03T02:54:04.298Z,7.60
2019-03-03T02:56:31.804Z,7.60
2019-03-03T02:58:59.251Z,7.70
2019-03-03T03:01:35.097Z,7.60
2019-03-03T03:04:02.560Z,7.60
2019-03-03T03:06:35.626Z,7.60
2019-03-03T03:09:10.194Z,7.60
2019-03-03T03:12:15.696Z,7.70
2019-03-03T03:15:01.580Z,7.70
2019-03-03T03:17:47.481Z,7.70
2019-03-03T03:20:28.481Z,7.70
2019-03-03T03:23:04.844Z,7.70
2019-03-03T03:26:03.770Z,7.60
2019-03-03T03:28:53.995Z,7.60
2019-03-03T03:31:39.721Z,7.60
2019-03-03T03:34:29.717Z,7.60
2019-03-03T03:37:04.652Z,7.60
2019-03-03T03:39:42.807Z,7.60
2019-03-03T03:42:28.440Z,7.60
2019-03-03T03:45:21.398Z,7.60
2019-03-03T03:47:55.280Z,7.50
2019-03-03T03:50:42.242Z,7.50
2019-03-03T03:53:41.352Z,7.50
2019-03-03T03:56:31.118Z,7.50
2019-03-03T03:59:16.810Z,7.50
2019-03-03T04:02:03.770Z,7.50
2019-03-03T04:04:52.961Z,7.50
2019-03-03T04:07:32.760Z,7.50
2019-03-03T04:10:08.848Z,7.50
2019-03-03T04:13:07.605Z,7.50
2019-03-03T04:15:45.806Z,7.50
2019-03-03T04:18:20.353Z,7.50
2019-03-03T04:21:05.857Z,7.50
2019-03-03T04:23:47.842Z,7.50
2019-03-03T04:26:46.868Z,7.50
2019-03-03T04:29:34.069Z,7.60
2019-03-03T04:32:09.666Z,7.60
2019-03-03T04:34:47.711Z,7.70
2019-03-03T04:37:34.668Z,7.70
2019-03-03T04:40:27.454Z,7.80
2019-03-03T04:43:17.202Z,7.80
2019-03-03T04:46:03.037Z,7.80
2019-03-03T04:48:49.598Z,7.70
2019-03-03T04:51:36.604Z,7.80
2019-03-03T04:54:14.143Z,7.70
2019-03-03T04:57:00.039Z,7.80
2019-03-03T04:59:46.074Z,7.80
2019-03-03T05:02:36.037Z,7.80
2019-03-03T05:05:11.667Z,7.80
2019-03-03T05:07:46.655Z,7.80
2019-03-03T05:10:25.504Z,7.80
2019-03-03T05:13:01.675Z,7.80
2019-03-03T05:15:47.520Z,7.80
2019-03-03T05:18:28.865Z,7.80
2019-03-03T05:20:56.311Z,7.70
2019-03-03T05:23:23.812Z,7.70
2019-03-03T05:25:51.293Z,7.70
2019-03-03T05:28:18.762Z,7.70
2019-03-03T05:30:46.233Z,7.60
2019-03-03T05:33:13.721Z,7.70
2019-03-03T05:35:41.160Z,7.70
2019-03-03T05:38:08.665Z,7.70
2019-03-03T05:40:36.338Z,7.70
2019-03-03T05:43:03.918Z,7.70
2019-03-03T05:45:31.368Z,7.70
2019-03-03T05:47:58.867Z,7.70
2019-03-03T05:50:26.541Z,7.70
2019-03-03T05:52:53.989Z,7.70
2019-03-03T05:55:21.459Z,7.70
2019-03-03T05:57:48.963Z,7.80
2019-03-03T06:00:16.437Z,7.80
2019-03-03T06:02:43.892Z,7.80
2019-03-03T06:05:11.397Z,7.80
2019-03-03T06:07:38.848Z,7.80
2019-03-03T06:10:06.610Z,7.80
2019-03-03T06:12:34.107Z,7.80
2019-03-03T06:15:01.562Z,7.80
2019-03-03T06:17:29.066Z,7.80
2019-03-03T06:19:56.558Z,7.80
2019-03-03T06:22:24.018Z,7.80
2019-03-03T06:24:51.524Z,7.90
2019-03-03T06:27:19.003Z,7.90
2019-03-03T06:29:46.502Z,7.90
2019-03-03T06:32:14.023Z,8.00
2019-03-03T06:34:41.525Z,8.10
2019-03-03T06:37:09.047Z,8.10
2019-03-03T06:39:36.515Z,8.20
2019-03-03T06:42:03.997Z,8.30
2019-03-03T06:44:31.466Z,8.30
2019-03-03T06:46:59.005Z,8.40
2019-03-03T06:49:26.514Z,8.50
2019-03-03T06:51:54.001Z,8.60
2019-03-03T06:54:21.611Z,8.60
2019-03-03T06:56:49.085Z,8.70
2019-03-03T06:59:16.561Z,8.70
2019-03-03T07:01:44.052Z,8.70
2019-03-03T07:04:11.514Z,8.60
2019-03-03T07:06:39.005Z,8.70
2019-03-03T07:09:06.794Z,8.80
2019-03-03T07:11:34.278Z,8.90
2019-03-03T07:14:01.820Z,9.00
2019-03-03T07:16:29.293Z,9.10
2019-03-03T07:18:57.008Z,9.30
2019-03-03T07:21:24.470Z,9.40
2019-03-03T07:23:51.945Z,9.60
2019-03-03T07:26:19.490Z,9.70
2019-03-03T07:28:46.958Z,9.80
2019-03-03T07:31:14.453Z,9.90
2019-03-03T07:33:45.770Z,9.70
2019-03-03T07:36:13.304Z,9.70
2019-03-03T07:38:40.773Z,9.60
2019-03-03T07:41:08.235Z,9.60
2019-03-03T07:43:35.750Z,9.50
2019-03-03T07:46:03.287Z,9.60
2019-03-03T07:48:30.853Z,9.60
2019-03-03T07:50:58.301Z,9.70
2019-03-03T07:53:25.773Z,9.70
2019-03-03T07:55:53.274Z,9.70
2019-03-03T07:58:20.759Z,9.70
2019-03-03T08:00:48.276Z,9.70
2019-03-03T08:03:15.745Z,9.70
2019-03-03T08:05:43.216Z,9.60
2019-03-03T08:08:10.690Z,9.40
2019-03-03T08:10:38.163Z,9.40
2019-03-03T08:13:09.327Z,9.40
2019-03-03T08:15:34.959Z,9.50
2019-03-03T08:18:02.468Z,9.50
2019-03-03T08:20:29.927Z,9.60
2019-03-03T08:22:57.427Z,9.60
2019-03-03T08:25:24.878Z,9.70
2019-03-03T08:27:52.393Z,9.80
2019-03-03T08:30:19.938Z,9.90
2019-03-03T08:32:47.427Z,10.00
2019-03-03T08:35:14.968Z,10.20
2019-03-03T08:37:42.488Z,10.40
2019-03-03T08:40:10.360Z,10.50
2019-03-03T08:42:46.320Z,10.50
2019-03-03T08:45:48.363Z,10.40
2019-03-03T08:48:34.105Z,10.30
2019-03-03T08:51:07.585Z,10.40
2019-03-03T08:53:53.462Z,10.20
2019-03-03T08:56:46.758Z,10.30
2019-03-03T08:59:48.791Z,10.60
2019-03-03T09:02:34.653Z,11.50
2019-03-03T09:05:18.323Z,12.40
2019-03-03T09:08:14.615Z,12.90
2019-03-03T09:11:10.698Z,13.20
2019-03-03T09:13:49.689Z,13.30
2019-03-03T09:16:24.757Z,13.50
2019-03-03T09:19:11.728Z,14.00
2019-03-03T09:22:01.571Z,14.10
2019-03-03T09:25:03.680Z,14.00
2019-03-03T09:27:41.476Z,14.20
2019-03-03T09:30:28.812Z,14.70
2019-03-03T09:33:14.542Z,14.50
2019-03-03T09:36:13.915Z,14.40
2019-03-03T09:38:59.489Z,14.20
2019-03-03T09:41:55.809Z,13.60
2019-03-03T09:44:57.944Z,13.50
2019-03-03T09:47:34.740Z,13.80
2019-03-03T09:50:11.743Z,13.50
2019-03-03T09:53:14.233Z,13.30
2019-03-03T09:56:01.274Z,13.20
2019-03-03T09:58:46.875Z,12.60
2019-03-03T10:01:20.074Z,12.30
2019-03-03T10:04:05.846Z,12.10
2019-03-03T10:06:52.524Z,11.70
2019-03-03T10:09:38.501Z,11.40
2019-03-03T10:12:11.997Z,11.30
2019-03-03T10:14:46.094Z,11.30
2019-03-03T10:17:35.860Z,11.40
2019-03-03T10:20:32.480Z,11.40
2019-03-03T10:23:19.499Z,11.30
2019-03-03T10:26:09.250Z,11.20
2019-03-03T10:28:59.723Z,11.60
2019-03-03T10:31:45.466Z,11.50
2019-03-03T10:34:29.428Z,11.60
2019-03-03T10:37:15.442Z,11.70
2019-03-03T10:39:55.752Z,11.60
2019-03-03T10:42:50.806Z,11.60
2019-03-03T10:45:35.623Z,11.40
2019-03-03T10:48:37.917Z,11.30
2019-03-03T10:51:43.313Z,11.30
2019-03-03T10:54:26.830Z,11.30
2019-03-03T10:57:02.226Z,11.20
2019-03-03T10:59:37.212Z,11.20
2019-03-03T11:02:36.155Z,11.20
2019-03-03T11:05:31.811Z,11.10
2019-03-03T11:08:24.943Z,11.10
2019-03-03T11:11:11.916Z,11.10
2019-03-03T11:13:56.879Z,11.00
2019-03-03T11:16:49.551Z,11.00
2019-03-03T11:19:24.764Z,11.00
2019-03-03T11:22:24.052Z,11.00
2019-03-03T11:25:07.453Z,11.10
2019-03-03T11:27:51.706Z,11.20
2019-03-03T11:30:28.135Z,11.30
2019-03-03T11:33:17.644Z,11.30
2019-03-03T11:36:07.665Z,11.50
2019-03-03T11:38:42.718Z,11.70
2019-03-03T11:41:35.406Z,12.10
2019-03-03T11:44:17.575Z,12.70
2019-03-03T11:47:07.174Z,12.90
2019-03-03T11:49:45.085Z,12.60
2019-03-03T11:52:37.959Z,12.40
2019-03-03T11:55:23.943Z,12.20
2019-03-03T11:58:13.997Z,12.30
2019-03-03T12:00:59.823Z,12.30
2019-03-03T12:03:36.017Z,12.40
2019-03-03T12:06:21.685Z,12.40
2019-03-03T12:09:17.892Z,12.30
2019-03-03T12:12:05.347Z,12.30
2019-03-03T12:14:44.486Z,12.40
2019-03-03T12:17:27.314Z,12.40
2019-03-03T12:20:26.531Z,12.60
2019-03-03T12:23:17.196Z,12.90
2019-03-03T12:26:13.109Z,13.00
2019-03-03T12:29:05.986Z,13.10
2019-03-03T12:31:46.688Z,13.30
2019-03-03T12:34:33.421Z,13.30
2019-03-03T12:37:22.976Z,13.60
2019-03-03T12:40:12.944Z,13.60
2019-03-03T12:42:59.898Z,13.60
2019-03-03T12:45:33.811Z,13.70
2019-03-03T12:48:12.497Z,13.60
2019-03-03T12:50:59.558Z,13.60
2019-03-03T12:53:47.342Z,13.50
2019-03-03T12:56:23.248Z,13.40
2019-03-03T12:59:10.229Z,13.30
2019-03-03T13:01:51.619Z,13.30
2019-03-03T13:04:53.989Z,13.60
2019-03-03T13:07:50.168Z,13.40
2019-03-03T13:10:27.233Z,13.60
2019-03-03T13:13:16.045Z,14.00
2019-03-03T13:16:05.698Z,13.90
2019-03-03T13:18:52.713Z,14.00
2019-03-03T13:21:42.510Z,14.10
2019-03-03T13:24:29.482Z,13.90
2019-03-03T13:27:07.421Z,14.10
2019-03-03T13:29:56.865Z,14.20
2019-03-03T13:32:40.942Z,14.40
2019-03-03T13:35:26.896Z,14.20
2019-03-03T13:38:20.141Z,14.20
2019-03-03T13:40:57.387Z,14.50
2019-03-03T13:43:24.846Z,14.50
2019-03-03T13:45:52.350Z,14.50
2019-03-03T13:48:19.840Z,14.50
2019-03-03T13:50:47.428Z,14.20
2019-03-03T13:53:15.176Z,14.00
2019-03-03T13:55:42.708Z,13.80
2019-03-03T13:58:10.317Z,13.60
2019-03-03T14:00:38.316Z,13.60
2019-03-03T14:03:05.806Z,13.50
2019-03-03T14:05:33.369Z,13.50
2019-03-03T14:08:00.947Z,13.70
2019-03-03T14:10:28.379Z,13.80
2019-03-03T14:12:55.887Z,13.80
2019-03-03T14:15:23.370Z,13.60
2019-03-03T14:17:50.972Z,13.40
2019-03-03T14:20:20.067Z,13.30
2019-03-03T14:22:47.541Z,13.30
2019-03-03T14:25:15.472Z,13.30
2019-03-03T14:27:42.984Z,13.10
2019-03-03T14:30:12.554Z,13.10
2019-03-03T14:32:40.054Z,13.00
2019-03-03T14:35:08.807Z,12.90
2019-03-03T14:37:37.840Z,12.90
2019-03-03T14:40:06.286Z,12.90
2019-03-03T14:42:33.822Z,12.80
2019-03-03T14:45:01.400Z,12.80
2019-03-03T14:47:28.913Z,12.80
2019-03-03T14:49:56.427Z,12.80
2019-03-03T14:52:23.930Z,12.90
2019-03-03T14:54:51.535Z,12.80
2019-03-03T14:57:19.079Z,12.80
2019-03-03T14:59:46.630Z,12.70
2019-03-03T15:02:14.207Z,12.60
2019-03-03T15:04:41.664Z,12.60
2019-03-03T15:07:09.261Z,12.60
2019-03-03T15:09:36.774Z,12.70
2019-03-03T15:12:04.306Z,12.70
2019-03-03T15:14:31.813Z,12.70
2019-03-03T15:16:59.308Z,12.70
2019-03-03T15:19:26.821Z,12.70
2019-03-03T15:21:54.285Z,12.70
2019-03-03T15:24:21.740Z,12.70
2019-03-03T15:26:49.358Z,12.70
2019-03-03T15:29:16.858Z,12.70
2019-03-03T15:31:44.544Z,12.70
2019-03-03T15:34:12.023Z,12.60
2019-03-03T15:36:39.538Z,12.60
2019-03-03T15:39:07.729Z,12.60
2019-03-03T15:41:36.161Z,12.60
2019-03-03T15:44:04.392Z,12.60
2019-03-03T15:46:31.914Z,12.60
2019-03-03T15:48:59.446Z,12.60
2019-03-03T15:51:26.984Z,12.60
2019-03-03T15:53:54.602Z,12.60
2019-03-03T15:56:22.093Z,12.60
2019-03-03T15:58:55.619Z,12.60
2019-03-03T16:01:18.959Z,12.60
2019-03-03T16:03:46.426Z,12.60
2019-03-03T16:06:13.924Z,12.50
2019-03-03T16:08:41.450Z,12.50
2019-03-03T16:11:08.947Z,12.40
2019-03-03T16:13:36.512Z,12.40
2019-03-03T16:16:04.769Z,12.40
2019-03-03T16:18:32.271Z,12.40
2019-03-03T16:20:59.781Z,12.30
2019-03-03T16:23:27.333Z,12.30
2019-03-03T16:25:54.808Z,12.30
2019-03-03T16:28:22.326Z,12.20
2019-03-03T16:30:49.859Z,12.20
2019-03-03T16:33:20.531Z,12.10
2019-03-03T16:35:46.639Z,12.10
2019-03-03T16:38:14.128Z,12.00
2019-03-03T16:40:41.633Z,11.90
2019-03-03T16:43:09.337Z,11.80
2019-03-03T16:45:36.835Z,11.80
2019-03-03T16:48:04.322Z,11.70
2019-03-03T16:50:31.903Z,11.60
2019-03-03T16:52:59.361Z,11.60
2019-03-03T16:55:26.889Z,11.50
2019-03-03T16:57:54.426Z,11.50
2019-03-03T17:00:21.923Z,11.40
2019-03-03T17:02:49.433Z,11.30
2019-03-03T17:05:17.744Z,11.30
2019-03-03T17:07:45.264Z,11.20
2019-03-03T17:10:13.116Z,11.10
2019-03-03T17:12:40.777Z,11.00
2019-03-03T17:15:14.058Z,10.90
2019-03-03T17:17:41.637Z,10.80
2019-03-03T17:20:09.541Z,10.80
2019-03-03T17:22:37.037Z,10.60
2019-03-03T17:25:08.156Z,10.60
2019-03-03T17:27:35.674Z,10.50
2019-03-03T17:30:03.638Z,10.50
2019-03-03T17:32:31.152Z,10.50
2019-03-03T17:34:58.657Z,10.50
2019-03-03T17:37:26.205Z,10.50
2019-03-03T17:39:56.506Z,10.40
2019-03-03T17:42:23.986Z,10.30
2019-03-03T17:44:51.555Z,10.20
2019-03-03T17:47:19.049Z,10.10
2019-03-03T17:49:46.679Z,10.10
2019-03-03T17:52:14.216Z,10.00
2019-03-03T17:54:41.699Z,10.00
2019-03-03T17:57:09.177Z,9.90
2019-03-03T17:59:36.736Z,9.80
2019-03-03T18:02:04.397Z,9.80
2019-03-03T18:04:31.926Z,9.70
2019-03-03T18:06:59.437Z,9.70
2019-03-03T18:09:26.926Z,9.70
2019-03-03T18:11:54.496Z,9.90
2019-03-03T18:14:21.953Z,9.90
2019-03-03T18:16:49.422Z,9.90
2019-03-03T18:19:16.975Z,9.90
2019-03-03T18:21:44.441Z,9.80
2019-03-03T18:24:11.963Z,9.80
2019-03-03T18:26:39.547Z,9.80
2019-03-03T18:29:07.073Z,9.80
2019-03-03T18:31:34.794Z,9.60
2019-03-03T18:34:02.317Z,9.50
2019-03-03T18:36:29.804Z,9.40
2019-03-03T18:38:57.328Z,9.50
2019-03-03T18:41:24.851Z,9.50
2019-03-03T18:43:52.351Z,9.50
2019-03-03T18:46:19.845Z,9.50
2019-03-03T18:48:47.370Z,9.50
2019-03-03T18:51:14.871Z,9.40
2019-03-03T18:53:45.134Z,9.30
2019-03-03T18:56:12.605Z,9.30
2019-03-03T18:58:40.364Z,9.30
2019-03-03T19:01:07.984Z,9.20
2019-03-03T19:03:35.451Z,9.30
2019-03-03T19:06:02.965Z,9.30
2019-03-03T19:08:30.520Z,9.30
2019-03-03T19:10:58.019Z,9.30
2019-03-03T19:13:25.553Z,9.30
2019-03-03T19:15:53.075Z,9.30
2019-03-03T19:18:20.632Z,9.30
2019-03-03T19:20:48.113Z,9.40
2019-03-03T19:23:15.701Z,9.40
2019-03-03T19:25:43.247Z,9.40
2019-03-03T19:28:10.798Z,9.40
2019-03-03T19:30:40.201Z,9.30
2019-03-03T19:33:14.145Z,9.30
2019-03-03T19:35:41.675Z,9.20
2019-03-03T19:38:09.165Z,9.10
2019-03-03T19:40:36.800Z,9.10
2019-03-03T19:43:04.389Z,9.00
2019-03-03T19:45:32.559Z,8.90
2019-03-03T19:48:00.069Z,8.80
2019-03-03T19:50:27.675Z,8.70
2019-03-03T19:52:57.830Z,8.50
2019-03-03T19:55:25.351Z,8.40
2019-03-03T19:57:52.896Z,8.40
2019-03-03T20:00:24.191Z,8.50
2019-03-03T20:02:51.692Z,8.60
2019-03-03T20:05:19.409Z,8.60
2019-03-03T20:07:46.923Z,8.60
2019-03-03T20:10:14.739Z,8.60
2019-03-03T20:12:42.273Z,8.60
2019-03-03T20:15:09.895Z,8.50
2019-03-03T20:17:37.478Z,8.50
2019-03-03T20:20:07.315Z,8.50
2019-03-03T20:22:34.931Z,8.40
2019-03-03T20:25:02.475Z,8.40
2019-03-03T20:27:29.952Z,8.30
2019-03-03T20:29:57.541Z,8.30
2019-03-03T20:32:25.133Z,8.30
2019-03-03T20:34:52.634Z,8.30
2019-03-03T20:37:20.126Z,8.30
2019-03-03T20:39:47.614Z,8.40
2019-03-03T20:42:15.074Z,8.40
2019-03-03T20:44:42.593Z,8.50
2019-03-03T20:47:10.089Z,8.50
2019-03-03T20:49:37.615Z,8.70
2019-03-03T20:52:05.534Z,8.70
2019-03-03T20:54:33.013Z,8.70
2019-03-03T20:57:00.523Z,8.70
2019-03-03T20:59:27.999Z,8.70
2019-03-03T21:01:55.532Z,8.80
2019-03-03T21:04:23.065Z,8.80
2019-03-03T21:06:50.570Z,8.90
2019-03-03T21:09:18.129Z,8.90
2019-03-03T21:11:45.652Z,8.90
2019-03-03T21:14:13.143Z,8.90
2019-03-03T21:16:40.636Z,8.90
2019-03-03T21:19:08.143Z,8.90
2019-03-03T21:21:35.740Z,8.80
2019-03-03T21:24:03.152Z,8.70
2019-03-03T21:26:30.845Z,8.70
2019-03-03T21:28:58.338Z,8.60
2019-03-03T21:31:25.841Z,8.50
2019-03-03T21:33:53.335Z,8.30
2019-03-03T21:36:20.835Z,8.20
2019-03-03T21:38:48.641Z,8.00
2019-03-03T21:41:16.136Z,7.90
2019-03-03T21:43:43.600Z,7.80
2019-03-03T21:46:11.091Z,7.70
2019-03-03T21:48:38.558Z,7.70
2019-03-03T21:51:06.908Z,7.70
2019-03-03T21:53:34.398Z,7.70
2019-03-03T21:56:01.899Z,7.70
2019-03-03T21:58:29.403Z,7.70
2019-03-03T22:00:56.939Z,7.70
2019-03-03T22:03:24.529Z,7.70
2019-03-03T22:05:51.987Z,7.70
2019-03-03T22:08:19.512Z,7.70
2019-03-03T22:10:46.989Z,7.60
2019-03-03T22:13:14.476Z,7.50
2019-03-03T22:15:41.975Z,7.50
2019-03-03T22:18:09.451Z,7.50
2019-03-03T22:20:36.939Z,7.50
2019-03-03T22:23:04.474Z,7.40
2019-03-03T22:25:31.979Z,7.50
2019-03-03T22:27:59.481Z,7.40
2019-03-03T22:30:26.938Z,7.30
2019-03-03T22:32:54.785Z,7.40
2019-03-03T22:35:22.278Z,7.40
2019-03-03T22:37:50.532Z,7.30
2019-03-03T22:40:18.154Z,7.30
2019-03-03T22:42:45.665Z,7.30
2019-03-03T22:45:13.413Z,7.30
2019-03-03T22:47:40.899Z,7.30
2019-03-03T22:50:09.765Z,7.40
2019-03-03T22:52:37.336Z,7.50
2019-03-03T22:55:05.309Z,7.60
2019-03-03T22:57:32.756Z,7.80
2019-03-03T23:00:00.437Z,8.00
2019-03-03T23:02:27.917Z,8.10
2019-03-03T23:05:00.905Z,8.20
2019-03-03T23:07:39.566Z,8.30
2019-03-03T23:11:00.754Z,8.30
2019-03-03T23:13:34.073Z,8.30
2019-03-03T23:16:13.410Z,8.40
2019-03-03T23:19:28.498Z,8.50
2019-03-03T23:22:33.909Z,8.40
2019-03-03T23:25:30.417Z,8.40
2019-03-03T23:27:57.900Z,8.30
2019-03-03T23:30:25.410Z,8.20
2019-03-03T23:32:52.928Z,8.10
2019-03-03T23:35:20.404Z,8.20
2019-03-03T23:37:47.897Z,8.20
2019-03-03T23:40:15.377Z,8.30
2019-03-03T23:42:42.860Z,8.30
2019-03-03T23:45:10.363Z,8.30
2019-03-03T23:47:37.805Z,8.30
2019-03-03T23:50:05.337Z,8.30
2019-03-03T23:52:32.802Z,8.20
2019-03-03T23:55:00.337Z,8.30
2019-03-03T23:57:27.761Z,8.30
2019-03-03T23:59:55.248Z,8.30
